SBPG/PNG METAR and TAF weather

Enter ICAO airport designator
Station Type Date Time Source
SBPG METAR 2021/04/15 20:00 UTC NOAA

SBPG 152000Z 13007KT 9999 SCT045 23/14 Q1018


Station Type Date Time Source
SBPG Decoded METAR 2021/04/15 20:00 UTC NOAA

Paranagua, Brazil (SBPG) 25-31S 048-31W
Apr 15, 2021 - 04:00 PM EDT / 2021.04.15 2000 UTC
Wind: from the SE (130 degrees) at 8 MPH (7 KT):0
Visibility: greater than 7 mile(s):0
Sky conditions: partly cloudy
Temperature: 73 F (23 C)
Dew Point: 57 F (14 C)
Relative Humidity: 56%
Pressure (altimeter): 30.06 in. Hg (1018 hPa)
ob: SBPG 152000Z 13007KT 9999 SCT045 23/14 Q1018
cycle: 20

Station Type Date Time Source
SBPG TAF UTC NOAA

Error!

Example: see airport list